sensor_id;sensor_type;location;lat;lon;timestamp;temperature;humidity
58809;DHT22;44579;51.672;7.834;2022-10-16T00:01:30;14.80;90.10
58809;DHT22;44579;51.672;7.834;2022-10-16T00:03:58;14.80;90.10
58809;DHT22;44579;51.672;7.834;2022-10-16T00:06:27;14.80;90.10
58809;DHT22;44579;51.672;7.834;2022-10-16T00:08:55;14.80;90.10
58809;DHT22;44579;51.672;7.834;2022-10-16T00:13:51;14.80;90.10
58809;DHT22;44579;51.672;7.834;2022-10-16T00:16:21;14.70;90.20
58809;DHT22;44579;51.672;7.834;2022-10-16T00:18:48;14.70;90.10
58809;DHT22;44579;51.672;7.834;2022-10-16T00:21:21;14.70;90.10
58809;DHT22;44579;51.672;7.834;2022-10-16T00:24:00;14.70;90.10
58809;DHT22;44579;51.672;7.834;2022-10-16T00:26:29;14.70;90.10
58809;DHT22;44579;51.672;7.834;2022-10-16T00:28:58;14.70;90.10
58809;DHT22;44579;51.672;7.834;2022-10-16T00:31:25;14.70;90.10
58809;DHT22;44579;51.672;7.834;2022-10-16T00:33:53;14.70;90.20
58809;DHT22;44579;51.672;7.834;2022-10-16T00:36:23;14.60;90.10
58809;DHT22;44579;51.672;7.834;2022-10-16T00:38:51;14.60;90.10
58809;DHT22;44579;51.672;7.834;2022-10-16T00:41:24;14.60;90.20
58809;DHT22;44579;51.672;7.834;2022-10-16T00:43:52;14.60;90.20
58809;DHT22;44579;51.672;7.834;2022-10-16T00:46:28;14.60;90.20
58809;DHT22;44579;51.672;7.834;2022-10-16T00:49:10;14.50;90.20
58809;DHT22;44579;51.672;7.834;2022-10-16T00:51:49;14.50;90.20
58809;DHT22;44579;51.672;7.834;2022-10-16T00:54:20;14.50;90.20
58809;DHT22;44579;51.672;7.834;2022-10-16T00:56:49;14.50;90.20
58809;DHT22;44579;51.672;7.834;2022-10-16T00:59:20;14.50;90.20
58809;DHT22;44579;51.672;7.834;2022-10-16T01:01:48;14.50;90.20
58809;DHT22;44579;51.672;7.834;2022-10-16T01:04:16;14.50;90.20
58809;DHT22;44579;51.672;7.834;2022-10-16T01:06:59;14.40;90.10
58809;DHT22;44579;51.672;7.834;2022-10-16T01:09:40;14.50;90.20
58809;DHT22;44579;51.672;7.834;2022-10-16T01:12:20;14.40;90.20
58809;DHT22;44579;51.672;7.834;2022-10-16T01:15:10;14.40;90.20
58809;DHT22;44579;51.672;7.834;2022-10-16T01:17:46;14.40;90.30
58809;DHT22;44579;51.672;7.834;2022-10-16T01:25:59;14.40;90.70
58809;DHT22;44579;51.672;7.834;2022-10-16T01:28:41;14.40;90.30
58809;DHT22;44579;51.672;7.834;2022-10-16T01:31:11;14.40;90.30
58809;DHT22;44579;51.672;7.834;2022-10-16T01:33:59;14.40;90.40
58809;DHT22;44579;51.672;7.834;2022-10-16T01:36:53;14.40;90.40
58809;DHT22;44579;51.672;7.834;2022-10-16T01:39:30;14.50;90.40
58809;DHT22;44579;51.672;7.834;2022-10-16T01:42:16;14.50;90.80
58809;DHT22;44579;51.672;7.834;2022-10-16T01:44:44;14.60;90.40
58809;DHT22;44579;51.672;7.834;2022-10-16T01:47:13;14.60;90.30
58809;DHT22;44579;51.672;7.834;2022-10-16T01:49:41;14.60;90.30
58809;DHT22;44579;51.672;7.834;2022-10-16T01:52:14;14.60;90.30
58809;DHT22;44579;51.672;7.834;2022-10-16T01:54:45;14.60;90.30
58809;DHT22;44579;51.672;7.834;2022-10-16T01:57:13;14.50;90.30
58809;DHT22;44579;51.672;7.834;2022-10-16T01:59:44;14.50;90.30
58809;DHT22;44579;51.672;7.834;2022-10-16T02:02:13;14.50;90.30
58809;DHT22;44579;51.672;7.834;2022-10-16T02:05:14;14.40;90.30
58809;DHT22;44579;51.672;7.834;2022-10-16T02:07:42;14.40;90.30
58809;DHT22;44579;51.672;7.834;2022-10-16T02:10:10;14.30;90.40
58809;DHT22;44579;51.672;7.834;2022-10-16T02:12:38;14.30;90.40
58809;DHT22;44579;51.672;7.834;2022-10-16T02:15:06;14.30;90.40
58809;DHT22;44579;51.672;7.834;2022-10-16T02:17:33;14.20;90.50
58809;DHT22;44579;51.672;7.834;2022-10-16T02:20:01;14.10;90.40
58809;DHT22;44579;51.672;7.834;2022-10-16T02:22:50;14.20;90.50
58809;DHT22;44579;51.672;7.834;2022-10-16T02:25:25;14.10;90.40
58809;DHT22;44579;51.672;7.834;2022-10-16T02:28:01;14.10;90.60
58809;DHT22;44579;51.672;7.834;2022-10-16T02:30:37;14.00;90.60
58809;DHT22;44579;51.672;7.834;2022-10-16T02:33:10;14.00;90.50
58809;DHT22;44579;51.672;7.834;2022-10-16T02:35:41;14.00;90.50
58809;DHT22;44579;51.672;7.834;2022-10-16T02:38:09;14.10;90.50
58809;DHT22;44579;51.672;7.834;2022-10-16T02:40:42;14.00;90.40
58809;DHT22;44579;51.672;7.834;2022-10-16T02:43:09;14.10;90.40
58809;DHT22;44579;51.672;7.834;2022-10-16T02:45:37;14.00;90.50
58809;DHT22;44579;51.672;7.834;2022-10-16T02:48:06;14.00;90.40
58809;DHT22;44579;51.672;7.834;2022-10-16T02:50:33;14.00;90.50
58809;DHT22;44579;51.672;7.834;2022-10-16T02:53:00;14.00;90.60
58809;DHT22;44579;51.672;7.834;2022-10-16T02:55:28;14.00;90.50
58809;DHT22;44579;51.672;7.834;2022-10-16T02:57:55;14.00;90.60
58809;DHT22;44579;51.672;7.834;2022-10-16T03:00:22;14.10;90.60
58809;DHT22;44579;51.672;7.834;2022-10-16T03:02:49;14.10;90.60
58809;DHT22;44579;51.672;7.834;2022-10-16T03:05:17;14.20;90.50
58809;DHT22;44579;51.672;7.834;2022-10-16T03:07:45;14.20;90.50
58809;DHT22;44579;51.672;7.834;2022-10-16T03:10:12;14.30;90.60
58809;DHT22;44579;51.672;7.834;2022-10-16T03:12:39;14.30;90.50
58809;DHT22;44579;51.672;7.834;2022-10-16T03:15:06;14.40;90.50
58809;DHT22;44579;51.672;7.834;2022-10-16T03:17:34;14.30;90.50
58809;DHT22;44579;51.672;7.834;2022-10-16T03:20:01;14.40;90.50
58809;DHT22;44579;51.672;7.834;2022-10-16T03:22:28;14.40;90.60
58809;DHT22;44579;51.672;7.834;2022-10-16T03:24:55;14.40;90.60
58809;DHT22;44579;51.672;7.834;2022-10-16T03:27:22;14.50;90.60
58809;DHT22;44579;51.672;7.834;2022-10-16T03:29:51;14.50;90.60
58809;DHT22;44579;51.672;7.834;2022-10-16T03:32:19;14.40;90.60
58809;DHT22;44579;51.672;7.834;2022-10-16T03:34:46;14.50;90.70
58809;DHT22;44579;51.672;7.834;2022-10-16T03:37:13;14.50;90.60
58809;DHT22;44579;51.672;7.834;2022-10-16T03:39:41;14.50;90.70
58809;DHT22;44579;51.672;7.834;2022-10-16T03:42:08;14.60;90.70
58809;DHT22;44579;51.672;7.834;2022-10-16T03:44:34;14.60;90.70
58809;DHT22;44579;51.672;7.834;2022-10-16T03:47:02;14.60;90.70
58809;DHT22;44579;51.672;7.834;2022-10-16T03:49:29;14.60;90.70
58809;DHT22;44579;51.672;7.834;2022-10-16T03:51:56;14.60;90.70
58809;DHT22;44579;51.672;7.834;2022-10-16T03:54:23;14.70;90.70
58809;DHT22;44579;51.672;7.834;2022-10-16T03:56:50;14.70;90.70
58809;DHT22;44579;51.672;7.834;2022-10-16T03:59:17;14.60;90.70
58809;DHT22;44579;51.672;7.834;2022-10-16T04:01:47;14.70;90.70
58809;DHT22;44579;51.672;7.834;2022-10-16T04:04:14;14.60;90.80
58809;DHT22;44579;51.672;7.834;2022-10-16T04:06:41;14.60;90.80
58809;DHT22;44579;51.672;7.834;2022-10-16T04:09:08;14.60;90.80
58809;DHT22;44579;51.672;7.834;2022-10-16T04:11:35;14.60;90.80
58809;DHT22;44579;51.672;7.834;2022-10-16T04:14:02;14.60;90.70
58809;DHT22;44579;51.672;7.834;2022-10-16T04:16:29;14.60;90.70
58809;DHT22;44579;51.672;7.834;2022-10-16T04:18:56;14.50;90.70
58809;DHT22;44579;51.672;7.834;2022-10-16T04:21:23;14.50;90.70
58809;DHT22;44579;51.672;7.834;2022-10-16T04:23:50;14.50;90.70
58809;DHT22;44579;51.672;7.834;2022-10-16T04:26:17;14.50;90.70
58809;DHT22;44579;51.672;7.834;2022-10-16T04:28:44;14.40;91.00
58809;DHT22;44579;51.672;7.834;2022-10-16T04:31:11;14.30;90.70
58809;DHT22;44579;51.672;7.834;2022-10-16T04:33:38;14.30;90.70
58809;DHT22;44579;51.672;7.834;2022-10-16T04:36:05;14.20;90.70
58809;DHT22;44579;51.672;7.834;2022-10-16T04:38:32;14.20;91.10
58809;DHT22;44579;51.672;7.834;2022-10-16T04:40:58;14.20;90.70
58809;DHT22;44579;51.672;7.834;2022-10-16T04:43:26;14.20;90.70
58809;DHT22;44579;51.672;7.834;2022-10-16T04:45:58;14.10;90.70
58809;DHT22;44579;51.672;7.834;2022-10-16T04:48:25;14.10;90.70
58809;DHT22;44579;51.672;7.834;2022-10-16T04:50:52;14.10;90.70
58809;DHT22;44579;51.672;7.834;2022-10-16T04:53:21;14.10;90.60
58809;DHT22;44579;51.672;7.834;2022-10-16T04:55:48;14.00;90.60
58809;DHT22;44579;51.672;7.834;2022-10-16T04:58:18;14.00;90.60
58809;DHT22;44579;51.672;7.834;2022-10-16T05:00:45;13.90;90.60
58809;DHT22;44579;51.672;7.834;2022-10-16T05:03:13;13.90;90.60
58809;DHT22;44579;51.672;7.834;2022-10-16T05:05:44;13.90;90.60
58809;DHT22;44579;51.672;7.834;2022-10-16T05:08:13;13.90;90.60
58809;DHT22;44579;51.672;7.834;2022-10-16T05:10:42;13.90;90.60
58809;DHT22;44579;51.672;7.834;2022-10-16T05:13:10;13.80;90.60
58809;DHT22;44579;51.672;7.834;2022-10-16T05:15:37;13.80;90.60
58809;DHT22;44579;51.672;7.834;2022-10-16T05:18:04;13.80;90.60
58809;DHT22;44579;51.672;7.834;2022-10-16T05:20:31;13.80;90.60
58809;DHT22;44579;51.672;7.834;2022-10-16T05:22:58;13.70;90.60
58809;DHT22;44579;51.672;7.834;2022-10-16T05:25:27;13.80;90.60
58809;DHT22;44579;51.672;7.834;2022-10-16T05:27:54;13.70;90.60
58809;DHT22;44579;51.672;7.834;2022-10-16T05:30:21;13.70;90.60
58809;DHT22;44579;51.672;7.834;2022-10-16T05:32:49;13.70;90.70
58809;DHT22;44579;51.672;7.834;2022-10-16T05:35:18;13.70;90.70
58809;DHT22;44579;51.672;7.834;2022-10-16T05:37:46;13.70;90.70
58809;DHT22;44579;51.672;7.834;2022-10-16T05:40:13;13.70;90.70
58809;DHT22;44579;51.672;7.834;2022-10-16T05:42:41;13.70;90.70
58809;DHT22;44579;51.672;7.834;2022-10-16T05:45:09;13.80;90.70
58809;DHT22;44579;51.672;7.834;2022-10-16T05:47:37;13.70;90.70
58809;DHT22;44579;51.672;7.834;2022-10-16T05:50:04;13.80;90.80
58809;DHT22;44579;51.672;7.834;2022-10-16T05:52:32;13.80;90.80
58809;DHT22;44579;51.672;7.834;2022-10-16T05:54:58;13.80;90.80
58809;DHT22;44579;51.672;7.834;2022-10-16T05:57:25;13.80;90.70
58809;DHT22;44579;51.672;7.834;2022-10-16T05:59:53;13.80;90.70
58809;DHT22;44579;51.672;7.834;2022-10-16T06:02:20;13.80;90.80
58809;DHT22;44579;51.672;7.834;2022-10-16T06:04:47;13.80;90.70
58809;DHT22;44579;51.672;7.834;2022-10-16T06:07:14;13.80;90.70
58809;DHT22;44579;51.672;7.834;2022-10-16T06:09:41;13.90;90.80
58809;DHT22;44579;51.672;7.834;2022-10-16T06:12:08;13.90;90.80
58809;DHT22;44579;51.672;7.834;2022-10-16T06:14:35;13.90;90.80
58809;DHT22;44579;51.672;7.834;2022-10-16T06:17:02;13.90;90.70
58809;DHT22;44579;51.672;7.834;2022-10-16T06:19:29;13.90;90.70
58809;DHT22;44579;51.672;7.834;2022-10-16T06:21:56;14.00;90.80
58809;DHT22;44579;51.672;7.834;2022-10-16T06:24:25;13.90;90.80
58809;DHT22;44579;51.672;7.834;2022-10-16T06:26:51;14.00;90.80
58809;DHT22;44579;51.672;7.834;2022-10-16T06:29:18;14.00;90.80
58809;DHT22;44579;51.672;7.834;2022-10-16T06:31:46;14.00;90.80
58809;DHT22;44579;51.672;7.834;2022-10-16T06:34:12;14.00;90.80
58809;DHT22;44579;51.672;7.834;2022-10-16T06:36:40;14.10;90.80
58809;DHT22;44579;51.672;7.834;2022-10-16T06:39:07;14.10;90.80
58809;DHT22;44579;51.672;7.834;2022-10-16T06:41:35;14.10;90.80
58809;DHT22;44579;51.672;7.834;2022-10-16T06:44:24;14.10;90.80
58809;DHT22;44579;51.672;7.834;2022-10-16T06:46:51;14.10;90.80
58809;DHT22;44579;51.672;7.834;2022-10-16T06:49:18;14.20;90.80
58809;DHT22;44579;51.672;7.834;2022-10-16T06:51:49;14.20;91.30
58809;DHT22;44579;51.672;7.834;2022-10-16T06:54:19;14.20;90.90
58809;DHT22;44579;51.672;7.834;2022-10-16T06:56:47;14.30;90.90
58809;DHT22;44579;51.672;7.834;2022-10-16T06:59:14;14.30;90.90
58809;DHT22;44579;51.672;7.834;2022-10-16T07:01:40;14.30;90.80
58809;DHT22;44579;51.672;7.834;2022-10-16T07:04:07;14.40;90.80
58809;DHT22;44579;51.672;7.834;2022-10-16T07:06:34;14.40;90.80
58809;DHT22;44579;51.672;7.834;2022-10-16T07:09:04;14.40;90.80
58809;DHT22;44579;51.672;7.834;2022-10-16T07:11:32;14.40;90.80
58809;DHT22;44579;51.672;7.834;2022-10-16T07:13:59;14.50;90.80
58809;DHT22;44579;51.672;7.834;2022-10-16T07:16:28;14.50;90.90
58809;DHT22;44579;51.672;7.834;2022-10-16T07:18:57;14.50;90.90
58809;DHT22;44579;51.672;7.834;2022-10-16T07:21:29;14.50;91.30
58809;DHT22;44579;51.672;7.834;2022-10-16T07:23:59;14.60;91.00
58809;DHT22;44579;51.672;7.834;2022-10-16T07:26:27;14.60;91.00
58809;DHT22;44579;51.672;7.834;2022-10-16T07:28:54;14.60;91.00
58809;DHT22;44579;51.672;7.834;2022-10-16T07:31:22;14.60;91.00
58809;DHT22;44579;51.672;7.834;2022-10-16T07:33:50;14.60;91.00
58809;DHT22;44579;51.672;7.834;2022-10-16T07:36:19;14.60;91.10
58809;DHT22;44579;51.672;7.834;2022-10-16T07:38:47;14.70;91.10
58809;DHT22;44579;51.672;7.834;2022-10-16T07:41:16;14.80;91.10
58809;DHT22;44579;51.672;7.834;2022-10-16T07:43:48;14.80;91.10
58809;DHT22;44579;51.672;7.834;2022-10-16T07:46:16;14.80;91.00
58809;DHT22;44579;51.672;7.834;2022-10-16T07:48:43;14.80;91.00
58809;DHT22;44579;51.672;7.834;2022-10-16T07:51:15;14.80;91.00
58809;DHT22;44579;51.672;7.834;2022-10-16T07:53:42;14.70;91.00
58809;DHT22;44579;51.672;7.834;2022-10-16T07:56:10;14.70;91.00
58809;DHT22;44579;51.672;7.834;2022-10-16T07:58:38;14.70;91.50
58809;DHT22;44579;51.672;7.834;2022-10-16T08:01:08;14.70;91.10
58809;DHT22;44579;51.672;7.834;2022-10-16T08:03:35;14.80;91.10
58809;DHT22;44579;51.672;7.834;2022-10-16T08:06:03;14.70;91.00
58809;DHT22;44579;51.672;7.834;2022-10-16T08:08:31;14.80;91.00
58809;DHT22;44579;51.672;7.834;2022-10-16T08:10:58;14.80;91.10
58809;DHT22;44579;51.672;7.834;2022-10-16T08:13:25;14.80;91.00
58809;DHT22;44579;51.672;7.834;2022-10-16T08:15:54;14.90;91.00
58809;DHT22;44579;51.672;7.834;2022-10-16T08:18:21;14.90;91.00
58809;DHT22;44579;51.672;7.834;2022-10-16T08:20:58;14.90;91.00
58809;DHT22;44579;51.672;7.834;2022-10-16T08:23:27;15.00;91.00
58809;DHT22;44579;51.672;7.834;2022-10-16T08:25:56;15.00;91.00
58809;DHT22;44579;51.672;7.834;2022-10-16T08:28:23;15.10;91.00
58809;DHT22;44579;51.672;7.834;2022-10-16T08:30:50;15.20;91.00
58809;DHT22;44579;51.672;7.834;2022-10-16T08:33:17;15.20;91.00
58809;DHT22;44579;51.672;7.834;2022-10-16T08:35:52;15.30;91.00
58809;DHT22;44579;51.672;7.834;2022-10-16T08:38:20;15.40;91.00
58809;DHT22;44579;51.672;7.834;2022-10-16T08:40:47;15.50;91.00
58809;DHT22;44579;51.672;7.834;2022-10-16T08:43:34;15.50;91.00
58809;DHT22;44579;51.672;7.834;2022-10-16T08:48:59;15.60;91.00
58809;DHT22;44579;51.672;7.834;2022-10-16T08:51:30;15.70;91.00
58809;DHT22;44579;51.672;7.834;2022-10-16T08:54:51;15.70;91.00
58809;DHT22;44579;51.672;7.834;2022-10-16T08:56:57;15.80;91.00
58809;DHT22;44579;51.672;7.834;2022-10-16T08:59:27;15.80;91.00
58809;DHT22;44579;51.672;7.834;2022-10-16T09:01:54;15.90;91.00
58809;DHT22;44579;51.672;7.834;2022-10-16T09:04:48;16.00;91.00
58809;DHT22;44579;51.672;7.834;2022-10-16T09:07:51;16.00;91.00
58809;DHT22;44579;51.672;7.834;2022-10-16T09:21:15;16.30;91.10
58809;DHT22;44579;51.672;7.834;2022-10-16T09:23:45;16.40;91.10
58809;DHT22;44579;51.672;7.834;2022-10-16T09:26:13;16.50;91.20
58809;DHT22;44579;51.672;7.834;2022-10-16T09:28:42;16.50;91.20
58809;DHT22;44579;51.672;7.834;2022-10-16T09:31:19;16.50;91.10
58809;DHT22;44579;51.672;7.834;2022-10-16T09:33:57;16.60;91.20
58809;DHT22;44579;51.672;7.834;2022-10-16T09:36:26;16.60;91.20
58809;DHT22;44579;51.672;7.834;2022-10-16T09:39:05;16.70;91.20
58809;DHT22;44579;51.672;7.834;2022-10-16T09:41:35;16.70;91.20
58809;DHT22;44579;51.672;7.834;2022-10-16T09:44:04;16.70;91.00
58809;DHT22;44579;51.672;7.834;2022-10-16T09:46:36;16.70;91.00
58809;DHT22;44579;51.672;7.834;2022-10-16T09:49:23;16.80;91.10
58809;DHT22;44579;51.672;7.834;2022-10-16T09:52:02;16.80;90.90
58809;DHT22;44579;51.672;7.834;2022-10-16T09:54:29;16.90;91.00
58809;DHT22;44579;51.672;7.834;2022-10-16T09:57:07;16.90;90.90
58809;DHT22;44579;51.672;7.834;2022-10-16T09:59:44;17.00;90.80
58809;DHT22;44579;51.672;7.834;2022-10-16T10:02:14;17.00;90.90
58809;DHT22;44579;51.672;7.834;2022-10-16T10:04:48;17.00;90.90
58809;DHT22;44579;51.672;7.834;2022-10-16T10:07:18;17.10;90.90
58809;DHT22;44579;51.672;7.834;2022-10-16T10:09:48;17.10;91.00
58809;DHT22;44579;51.672;7.834;2022-10-16T10:12:28;17.20;91.00
58809;DHT22;44579;51.672;7.834;2022-10-16T10:15:06;17.20;91.00
58809;DHT22;44579;51.672;7.834;2022-10-16T10:17:52;17.30;90.80
58809;DHT22;44579;51.672;7.834;2022-10-16T10:20:27;17.30;90.70
58809;DHT22;44579;51.672;7.834;2022-10-16T10:22:55;17.40;90.60
58809;DHT22;44579;51.672;7.834;2022-10-16T10:25:32;17.40;90.50
58809;DHT22;44579;51.672;7.834;2022-10-16T10:33:49;17.40;90.10
58809;DHT22;44579;51.672;7.834;2022-10-16T10:36:28;17.40;90.10
58809;DHT22;44579;51.672;7.834;2022-10-16T10:39:16;17.50;90.10
58809;DHT22;44579;51.672;7.834;2022-10-16T10:44:37;17.50;90.10
58809;DHT22;44579;51.672;7.834;2022-10-16T10:47:27;17.50;90.00
58809;DHT22;44579;51.672;7.834;2022-10-16T10:50:18;17.60;90.10
58809;DHT22;44579;51.672;7.834;2022-10-16T10:52:59;17.70;90.10
58809;DHT22;44579;51.672;7.834;2022-10-16T11:01:32;17.80;90.10
58809;DHT22;44579;51.672;7.834;2022-10-16T11:04:42;17.90;90.10
58809;DHT22;44579;51.672;7.834;2022-10-16T11:07:20;17.90;89.90
58809;DHT22;44579;51.672;7.834;2022-10-16T11:09:57;17.90;89.90
58809;DHT22;44579;51.672;7.834;2022-10-16T11:12:38;17.90;89.70
58809;DHT22;44579;51.672;7.834;2022-10-16T11:15:20;17.90;89.50
58809;DHT22;44579;51.672;7.834;2022-10-16T11:20:34;18.00;89.20
58809;DHT22;44579;51.672;7.834;2022-10-16T11:23:24;18.00;89.40
58809;DHT22;44579;51.672;7.834;2022-10-16T11:25:55;18.10;89.30
58809;DHT22;44579;51.672;7.834;2022-10-16T11:28:31;18.10;89.50
58809;DHT22;44579;51.672;7.834;2022-10-16T11:31:26;18.10;89.60
58809;DHT22;44579;51.672;7.834;2022-10-16T11:34:06;18.10;89.50
58809;DHT22;44579;51.672;7.834;2022-10-16T11:39:30;18.30;89.70
58809;DHT22;44579;51.672;7.834;2022-10-16T11:44:57;18.40;89.40
58809;DHT22;44579;51.672;7.834;2022-10-16T11:47:51;18.40;88.80
58809;DHT22;44579;51.672;7.834;2022-10-16T11:56:18;18.50;88.40
58809;DHT22;44579;51.672;7.834;2022-10-16T12:01:49;18.60;88.40
58809;DHT22;44579;51.672;7.834;2022-10-16T12:04:33;18.70;88.00
58809;DHT22;44579;51.672;7.834;2022-10-16T12:07:07;18.70;87.90
58809;DHT22;44579;51.672;7.834;2022-10-16T12:09:38;18.70;87.60
58809;DHT22;44579;51.672;7.834;2022-10-16T12:15:24;18.80;86.90
58809;DHT22;44579;51.672;7.834;2022-10-16T12:18:21;18.80;86.90
58809;DHT22;44579;51.672;7.834;2022-10-16T12:20:58;18.90;86.60
58809;DHT22;44579;51.672;7.834;2022-10-16T12:23:27;19.00;86.80
58809;DHT22;44579;51.672;7.834;2022-10-16T12:25:56;19.00;86.90
58809;DHT22;44579;51.672;7.834;2022-10-16T12:28:31;19.10;86.80
58809;DHT22;44579;51.672;7.834;2022-10-16T12:31:02;19.10;87.00
58809;DHT22;44579;51.672;7.834;2022-10-16T12:33:32;19.20;87.00
58809;DHT22;44579;51.672;7.834;2022-10-16T12:36:03;19.20;86.90
58809;DHT22;44579;51.672;7.834;2022-10-16T12:38:52;19.20;86.70
58809;DHT22;44579;51.672;7.834;2022-10-16T12:41:31;19.20;86.50
58809;DHT22;44579;51.672;7.834;2022-10-16T12:43:59;19.20;86.20
58809;DHT22;44579;51.672;7.834;2022-10-16T12:51:55;19.10;86.00
58809;DHT22;44579;51.672;7.834;2022-10-16T12:54:35;19.10;86.40
58809;DHT22;44579;51.672;7.834;2022-10-16T12:57:43;19.00;86.20
58809;DHT22;44579;51.672;7.834;2022-10-16T13:00:23;18.90;86.00
58809;DHT22;44579;51.672;7.834;2022-10-16T13:08:46;18.90;86.10
58809;DHT22;44579;51.672;7.834;2022-10-16T13:11:28;18.80;86.00
58809;DHT22;44579;51.672;7.834;2022-10-16T13:14:28;18.90;86.00
58809;DHT22;44579;51.672;7.834;2022-10-16T13:19:45;18.90;85.30
58809;DHT22;44579;51.672;7.834;2022-10-16T13:22:24;18.80;85.30
58809;DHT22;44579;51.672;7.834;2022-10-16T13:25:23;18.80;85.10
58809;DHT22;44579;51.672;7.834;2022-10-16T13:27:54;18.70;85.10
58809;DHT22;44579;51.672;7.834;2022-10-16T13:30:25;18.70;85.30
58809;DHT22;44579;51.672;7.834;2022-10-16T13:33:19;18.60;85.20
58809;DHT22;44579;51.672;7.834;2022-10-16T13:35:53;18.60;85.20
58809;DHT22;44579;51.672;7.834;2022-10-16T13:38:28;18.60;85.30
58809;DHT22;44579;51.672;7.834;2022-10-16T13:41:14;18.60;85.20
58809;DHT22;44579;51.672;7.834;2022-10-16T13:44:00;18.70;85.00
58809;DHT22;44579;51.672;7.834;2022-10-16T13:46:27;18.70;84.90
58809;DHT22;44579;51.672;7.834;2022-10-16T13:49:01;18.70;84.90
58809;DHT22;44579;51.672;7.834;2022-10-16T13:51:30;18.70;84.80
58809;DHT22;44579;51.672;7.834;2022-10-16T13:53:58;18.70;85.40
58809;DHT22;44579;51.672;7.834;2022-10-16T13:56:30;18.70;84.40
58809;DHT22;44579;51.672;7.834;2022-10-16T13:59:25;18.60;84.20
58809;DHT22;44579;51.672;7.834;2022-10-16T14:01:55;18.60;84.00
58809;DHT22;44579;51.672;7.834;2022-10-16T14:04:23;18.70;84.20
58809;DHT22;44579;51.672;7.834;2022-10-16T14:06:52;18.70;84.00
58809;DHT22;44579;51.672;7.834;2022-10-16T14:09:29;18.70;83.60
58809;DHT22;44579;51.672;7.834;2022-10-16T14:12:03;18.70;83.40
58809;DHT22;44579;51.672;7.834;2022-10-16T14:14:35;18.60;83.40
58809;DHT22;44579;51.672;7.834;2022-10-16T14:17:18;18.70;83.40
58809;DHT22;44579;51.672;7.834;2022-10-16T14:19:50;18.60;83.40
58809;DHT22;44579;51.672;7.834;2022-10-16T14:22:29;18.60;83.30
58809;DHT22;44579;51.672;7.834;2022-10-16T14:24:58;18.60;83.30
58809;DHT22;44579;51.672;7.834;2022-10-16T14:27:36;18.50;83.10
58809;DHT22;44579;51.672;7.834;2022-10-16T14:33:01;18.50;82.90
58809;DHT22;44579;51.672;7.834;2022-10-16T14:35:38;18.50;82.90
58809;DHT22;44579;51.672;7.834;2022-10-16T14:38:06;18.50;82.90
58809;DHT22;44579;51.672;7.834;2022-10-16T14:40:47;18.50;82.90
58809;DHT22;44579;51.672;7.834;2022-10-16T14:43:21;18.60;82.80
58809;DHT22;44579;51.672;7.834;2022-10-16T14:45:54;18.70;82.60
58809;DHT22;44579;51.672;7.834;2022-10-16T14:48:23;18.70;82.50
58809;DHT22;44579;51.672;7.834;2022-10-16T14:50:50;18.80;82.40
58809;DHT22;44579;51.672;7.834;2022-10-16T14:53:17;18.80;83.10
58809;DHT22;44579;51.672;7.834;2022-10-16T14:55:44;18.80;82.20
58809;DHT22;44579;51.672;7.834;2022-10-16T14:58:19;18.80;82.50
58809;DHT22;44579;51.672;7.834;2022-10-16T15:00:47;18.70;82.60
58809;DHT22;44579;51.672;7.834;2022-10-16T15:03:17;18.70;82.40
58809;DHT22;44579;51.672;7.834;2022-10-16T15:05:44;18.70;82.30
58809;DHT22;44579;51.672;7.834;2022-10-16T15:08:11;18.60;82.20
58809;DHT22;44579;51.672;7.834;2022-10-16T15:10:41;18.60;82.30
58809;DHT22;44579;51.672;7.834;2022-10-16T15:13:12;18.50;82.10
58809;DHT22;44579;51.672;7.834;2022-10-16T15:15:44;18.40;82.10
58809;DHT22;44579;51.672;7.834;2022-10-16T15:18:11;18.40;82.00
58809;DHT22;44579;51.672;7.834;2022-10-16T15:20:41;18.30;82.00
58809;DHT22;44579;51.672;7.834;2022-10-16T15:23:16;18.40;81.90
58809;DHT22;44579;51.672;7.834;2022-10-16T15:25:52;18.40;81.70
58809;DHT22;44579;51.672;7.834;2022-10-16T15:28:21;18.40;81.70
58809;DHT22;44579;51.672;7.834;2022-10-16T15:30:50;18.40;81.70
58809;DHT22;44579;51.672;7.834;2022-10-16T15:33:20;18.50;81.60
58809;DHT22;44579;51.672;7.834;2022-10-16T15:35:50;18.50;81.50
58809;DHT22;44579;51.672;7.834;2022-10-16T15:38:22;18.50;81.40
58809;DHT22;44579;51.672;7.834;2022-10-16T15:40:49;18.50;81.30
58809;DHT22;44579;51.672;7.834;2022-10-16T15:43:18;18.50;82.10
58809;DHT22;44579;51.672;7.834;2022-10-16T15:46:10;18.40;81.20
58809;DHT22;44579;51.672;7.834;2022-10-16T15:48:39;18.40;81.20
58809;DHT22;44579;51.672;7.834;2022-10-16T15:51:07;18.30;81.10
58809;DHT22;44579;51.672;7.834;2022-10-16T15:53:35;18.30;81.20
58809;DHT22;44579;51.672;7.834;2022-10-16T15:56:05;18.20;81.20
58809;DHT22;44579;51.672;7.834;2022-10-16T15:58:33;18.20;81.20
58809;DHT22;44579;51.672;7.834;2022-10-16T16:01:01;18.10;81.20
58809;DHT22;44579;51.672;7.834;2022-10-16T16:03:29;18.20;81.20
58809;DHT22;44579;51.672;7.834;2022-10-16T16:05:57;18.10;81.10
58809;DHT22;44579;51.672;7.834;2022-10-16T16:08:24;18.10;81.00
58809;DHT22;44579;51.672;7.834;2022-10-16T16:11:03;18.10;81.00
58809;DHT22;44579;51.672;7.834;2022-10-16T16:13:30;18.00;80.80
58809;DHT22;44579;51.672;7.834;2022-10-16T16:15:58;18.00;80.90
58809;DHT22;44579;51.672;7.834;2022-10-16T16:18:25;18.00;80.90
58809;DHT22;44579;51.672;7.834;2022-10-16T16:20:53;18.00;81.00
58809;DHT22;44579;51.672;7.834;2022-10-16T16:23:32;18.00;80.90
58809;DHT22;44579;51.672;7.834;2022-10-16T16:28:30;17.90;80.90
58809;DHT22;44579;51.672;7.834;2022-10-16T16:30:58;17.90;81.00
58809;DHT22;44579;51.672;7.834;2022-10-16T16:33:27;17.90;81.10
58809;DHT22;44579;51.672;7.834;2022-10-16T16:35:58;17.90;81.10
58809;DHT22;44579;51.672;7.834;2022-10-16T16:38:26;17.80;81.10
58809;DHT22;44579;51.672;7.834;2022-10-16T16:40:54;17.80;81.20
58809;DHT22;44579;51.672;7.834;2022-10-16T16:43:26;17.80;81.20
58809;DHT22;44579;51.672;7.834;2022-10-16T16:45:54;17.70;81.10
58809;DHT22;44579;51.672;7.834;2022-10-16T16:48:21;17.70;81.20
58809;DHT22;44579;51.672;7.834;2022-10-16T16:50:48;17.70;81.30
58809;DHT22;44579;51.672;7.834;2022-10-16T16:53:15;17.60;81.50
58809;DHT22;44579;51.672;7.834;2022-10-16T16:55:42;17.60;81.50
58809;DHT22;44579;51.672;7.834;2022-10-16T16:58:09;17.50;81.40
58809;DHT22;44579;51.672;7.834;2022-10-16T17:00:36;17.50;81.50
58809;DHT22;44579;51.672;7.834;2022-10-16T17:03:03;17.50;81.50
58809;DHT22;44579;51.672;7.834;2022-10-16T17:05:30;17.40;81.40
58809;DHT22;44579;51.672;7.834;2022-10-16T17:07:57;17.40;81.50
58809;DHT22;44579;51.672;7.834;2022-10-16T17:10:24;17.40;81.50
58809;DHT22;44579;51.672;7.834;2022-10-16T17:12:50;17.40;81.40
58809;DHT22;44579;51.672;7.834;2022-10-16T17:15:18;17.40;81.40